sensor_id;sensor_type;location;lat;lon;timestamp;P1;durP1;ratioP1;P2;durP2;ratioP2
14748;SDS011;7466;53.574;9.976;2022-12-24T00:01:32;46.53;;;19.83;;
14748;SDS011;7466;53.574;9.976;2022-12-24T00:03:59;44.17;;;19.50;;
14748;SDS011;7466;53.574;9.976;2022-12-24T00:06:26;42.70;;;19.17;;
14748;SDS011;7466;53.574;9.976;2022-12-24T00:08:53;45.20;;;19.93;;
14748;SDS011;7466;53.574;9.976;2022-12-24T00:11:21;49.67;;;19.07;;
14748;SDS011;7466;53.574;9.976;2022-12-24T00:13:49;45.43;;;19.80;;
14748;SDS011;7466;53.574;9.976;2022-12-24T00:16:16;43.80;;;19.57;;
14748;SDS011;7466;53.574;9.976;2022-12-24T00:18:42;43.83;;;19.37;;
14748;SDS011;7466;53.574;9.976;2022-12-24T00:21:09;43.53;;;18.93;;
14748;SDS011;7466;53.574;9.976;2022-12-24T00:23:36;49.47;;;19.90;;
14748;SDS011;7466;53.574;9.976;2022-12-24T00:26:02;46.23;;;20.33;;
14748;SDS011;7466;53.574;9.976;2022-12-24T00:28:29;40.40;;;19.10;;
14748;SDS011;7466;53.574;9.976;2022-12-24T00:30:57;40.30;;;18.10;;
14748;SDS011;7466;53.574;9.976;2022-12-24T00:33:24;42.27;;;19.10;;
14748;SDS011;7466;53.574;9.976;2022-12-24T00:35:51;41.87;;;18.63;;
14748;SDS011;7466;53.574;9.976;2022-12-24T00:38:19;48.63;;;19.10;;
14748;SDS011;7466;53.574;9.976;2022-12-24T00:40:46;49.77;;;20.37;;
14748;SDS011;7466;53.574;9.976;2022-12-24T00:43:12;42.87;;;18.10;;
14748;SDS011;7466;53.574;9.976;2022-12-24T00:45:39;45.20;;;19.00;;
14748;SDS011;7466;53.574;9.976;2022-12-24T00:48:08;43.03;;;19.23;;
14748;SDS011;7466;53.574;9.976;2022-12-24T00:50:35;41.90;;;19.27;;
14748;SDS011;7466;53.574;9.976;2022-12-24T00:53:02;43.07;;;18.57;;
14748;SDS011;7466;53.574;9.976;2022-12-24T00:55:29;49.10;;;19.47;;
14748;SDS011;7466;53.574;9.976;2022-12-24T00:57:55;49.00;;;19.53;;
14748;SDS011;7466;53.574;9.976;2022-12-24T01:00:22;52.50;;;19.13;;
14748;SDS011;7466;53.574;9.976;2022-12-24T01:02:49;47.77;;;18.80;;
14748;SDS011;7466;53.574;9.976;2022-12-24T01:05:17;46.97;;;19.60;;
14748;SDS011;7466;53.574;9.976;2022-12-24T01:07:45;44.80;;;18.70;;
14748;SDS011;7466;53.574;9.976;2022-12-24T01:10:13;47.23;;;19.13;;
14748;SDS011;7466;53.574;9.976;2022-12-24T01:12:41;45.03;;;18.67;;
14748;SDS011;7466;53.574;9.976;2022-12-24T01:15:09;45.03;;;18.30;;
14748;SDS011;7466;53.574;9.976;2022-12-24T01:17:37;49.70;;;19.97;;
14748;SDS011;7466;53.574;9.976;2022-12-24T01:20:06;46.10;;;19.37;;
14748;SDS011;7466;53.574;9.976;2022-12-24T01:22:35;56.30;;;19.77;;
14748;SDS011;7466;53.574;9.976;2022-12-24T01:25:02;49.03;;;19.33;;
14748;SDS011;7466;53.574;9.976;2022-12-24T01:27:30;48.50;;;18.97;;
14748;SDS011;7466;53.574;9.976;2022-12-24T01:29:57;44.93;;;19.43;;
14748;SDS011;7466;53.574;9.976;2022-12-24T01:32:24;43.03;;;19.13;;
14748;SDS011;7466;53.574;9.976;2022-12-24T01:34:50;49.13;;;18.77;;
14748;SDS011;7466;53.574;9.976;2022-12-24T01:37:17;46.27;;;19.70;;
14748;SDS011;7466;53.574;9.976;2022-12-24T01:39:45;45.37;;;18.53;;
14748;SDS011;7466;53.574;9.976;2022-12-24T01:42:15;50.53;;;18.60;;
14748;SDS011;7466;53.574;9.976;2022-12-24T01:47:59;43.80;;;19.00;;
14748;SDS011;7466;53.574;9.976;2022-12-24T01:50:26;47.40;;;19.57;;
14748;SDS011;7466;53.574;9.976;2022-12-24T01:52:53;47.50;;;18.50;;
14748;SDS011;7466;53.574;9.976;2022-12-24T01:55:21;47.20;;;19.60;;
14748;SDS011;7466;53.574;9.976;2022-12-24T01:57:51;45.90;;;19.60;;
14748;SDS011;7466;53.574;9.976;2022-12-24T02:00:21;44.03;;;18.13;;
14748;SDS011;7466;53.574;9.976;2022-12-24T02:02:48;41.73;;;18.70;;
14748;SDS011;7466;53.574;9.976;2022-12-24T02:05:17;45.13;;;18.30;;
14748;SDS011;7466;53.574;9.976;2022-12-24T02:07:49;50.07;;;18.43;;
14748;SDS011;7466;53.574;9.976;2022-12-24T02:10:17;47.57;;;18.37;;
14748;SDS011;7466;53.574;9.976;2022-12-24T02:12:45;53.33;;;18.50;;
14748;SDS011;7466;53.574;9.976;2022-12-24T02:15:13;44.80;;;17.90;;
14748;SDS011;7466;53.574;9.976;2022-12-24T02:17:45;49.63;;;18.10;;
14748;SDS011;7466;53.574;9.976;2022-12-24T02:20:29;49.33;;;18.87;;
14748;SDS011;7466;53.574;9.976;2022-12-24T02:26:17;41.60;;;17.87;;
14748;SDS011;7466;53.574;9.976;2022-12-24T02:29:09;41.57;;;17.00;;
14748;SDS011;7466;53.574;9.976;2022-12-24T02:31:48;41.57;;;17.07;;
14748;SDS011;7466;53.574;9.976;2022-12-24T02:34:19;40.90;;;17.93;;
14748;SDS011;7466;53.574;9.976;2022-12-24T02:36:53;40.17;;;17.30;;
14748;SDS011;7466;53.574;9.976;2022-12-24T02:39:23;37.97;;;17.37;;
14748;SDS011;7466;53.574;9.976;2022-12-24T02:41:54;41.33;;;17.03;;
14748;SDS011;7466;53.574;9.976;2022-12-24T02:44:33;45.03;;;17.70;;
14748;SDS011;7466;53.574;9.976;2022-12-24T02:47:04;40.40;;;17.60;;
14748;SDS011;7466;53.574;9.976;2022-12-24T02:49:33;37.93;;;17.70;;
14748;SDS011;7466;53.574;9.976;2022-12-24T02:52:00;35.97;;;16.20;;
14748;SDS011;7466;53.574;9.976;2022-12-24T02:54:27;40.27;;;17.23;;
14748;SDS011;7466;53.574;9.976;2022-12-24T02:57:00;40.77;;;17.07;;
14748;SDS011;7466;53.574;9.976;2022-12-24T02:59:42;41.93;;;16.67;;
14748;SDS011;7466;53.574;9.976;2022-12-24T03:02:25;37.87;;;16.50;;
14748;SDS011;7466;53.574;9.976;2022-12-24T03:05:04;41.83;;;16.90;;
14748;SDS011;7466;53.574;9.976;2022-12-24T03:07:39;38.63;;;16.23;;
14748;SDS011;7466;53.574;9.976;2022-12-24T03:10:17;38.80;;;16.00;;
14748;SDS011;7466;53.574;9.976;2022-12-24T03:12:49;37.20;;;15.87;;
14748;SDS011;7466;53.574;9.976;2022-12-24T03:15:22;39.17;;;15.07;;
14748;SDS011;7466;53.574;9.976;2022-12-24T03:17:53;35.80;;;15.77;;
14748;SDS011;7466;53.574;9.976;2022-12-24T03:20:24;33.83;;;15.73;;
14748;SDS011;7466;53.574;9.976;2022-12-24T03:22:58;32.60;;;15.43;;
14748;SDS011;7466;53.574;9.976;2022-12-24T03:25:25;34.23;;;16.13;;
14748;SDS011;7466;53.574;9.976;2022-12-24T03:27:53;40.00;;;16.70;;
14748;SDS011;7466;53.574;9.976;2022-12-24T03:30:21;33.10;;;15.07;;
14748;SDS011;7466;53.574;9.976;2022-12-24T03:32:48;31.97;;;15.03;;
14748;SDS011;7466;53.574;9.976;2022-12-24T03:35:16;36.30;;;15.87;;
14748;SDS011;7466;53.574;9.976;2022-12-24T03:37:43;35.33;;;15.73;;
14748;SDS011;7466;53.574;9.976;2022-12-24T03:40:10;35.90;;;16.43;;
14748;SDS011;7466;53.574;9.976;2022-12-24T03:42:37;31.50;;;14.90;;
14748;SDS011;7466;53.574;9.976;2022-12-24T03:45:05;34.13;;;15.20;;
14748;SDS011;7466;53.574;9.976;2022-12-24T03:47:32;33.03;;;15.60;;
14748;SDS011;7466;53.574;9.976;2022-12-24T03:49:59;31.67;;;14.37;;
14748;SDS011;7466;53.574;9.976;2022-12-24T03:52:27;32.33;;;15.93;;
14748;SDS011;7466;53.574;9.976;2022-12-24T03:54:54;37.30;;;15.23;;
14748;SDS011;7466;53.574;9.976;2022-12-24T03:57:20;34.27;;;15.73;;
14748;SDS011;7466;53.574;9.976;2022-12-24T03:59:47;32.93;;;14.97;;
14748;SDS011;7466;53.574;9.976;2022-12-24T04:02:14;28.47;;;15.03;;
14748;SDS011;7466;53.574;9.976;2022-12-24T04:04:41;37.80;;;15.97;;
14748;SDS011;7466;53.574;9.976;2022-12-24T04:07:07;30.47;;;15.10;;
14748;SDS011;7466;53.574;9.976;2022-12-24T04:09:36;31.27;;;14.47;;
14748;SDS011;7466;53.574;9.976;2022-12-24T04:12:03;30.80;;;14.83;;
14748;SDS011;7466;53.574;9.976;2022-12-24T04:14:30;29.23;;;14.57;;
14748;SDS011;7466;53.574;9.976;2022-12-24T04:16:57;31.23;;;14.73;;
14748;SDS011;7466;53.574;9.976;2022-12-24T04:19:24;31.30;;;14.83;;
14748;SDS011;7466;53.574;9.976;2022-12-24T04:21:50;29.77;;;15.00;;
14748;SDS011;7466;53.574;9.976;2022-12-24T04:24:17;35.73;;;14.03;;
14748;SDS011;7466;53.574;9.976;2022-12-24T04:26:45;24.57;;;13.47;;
14748;SDS011;7466;53.574;9.976;2022-12-24T04:29:12;26.60;;;14.93;;
14748;SDS011;7466;53.574;9.976;2022-12-24T04:31:38;27.93;;;14.10;;
14748;SDS011;7466;53.574;9.976;2022-12-24T04:34:05;35.50;;;13.50;;
14748;SDS011;7466;53.574;9.976;2022-12-24T04:36:32;27.23;;;14.10;;
14748;SDS011;7466;53.574;9.976;2022-12-24T04:39:00;32.07;;;14.13;;
14748;SDS011;7466;53.574;9.976;2022-12-24T04:41:26;26.20;;;14.27;;
14748;SDS011;7466;53.574;9.976;2022-12-24T04:43:54;32.27;;;14.00;;
14748;SDS011;7466;53.574;9.976;2022-12-24T04:46:22;28.17;;;13.97;;
14748;SDS011;7466;53.574;9.976;2022-12-24T04:48:50;30.73;;;13.57;;
14748;SDS011;7466;53.574;9.976;2022-12-24T04:51:19;25.63;;;12.30;;
14748;SDS011;7466;53.574;9.976;2022-12-24T04:53:47;25.37;;;13.00;;
14748;SDS011;7466;53.574;9.976;2022-12-24T04:56:15;28.80;;;13.47;;
14748;SDS011;7466;53.574;9.976;2022-12-24T04:58:43;27.03;;;12.50;;
14748;SDS011;7466;53.574;9.976;2022-12-24T05:01:12;25.07;;;13.23;;
14748;SDS011;7466;53.574;9.976;2022-12-24T05:03:40;26.63;;;12.77;;
14748;SDS011;7466;53.574;9.976;2022-12-24T05:06:08;20.60;;;12.67;;
14748;SDS011;7466;53.574;9.976;2022-12-24T05:08:37;32.47;;;12.77;;
14748;SDS011;7466;53.574;9.976;2022-12-24T05:11:04;25.73;;;12.67;;
14748;SDS011;7466;53.574;9.976;2022-12-24T05:13:31;25.23;;;12.93;;
14748;SDS011;7466;53.574;9.976;2022-12-24T05:15:59;23.63;;;13.03;;
14748;SDS011;7466;53.574;9.976;2022-12-24T05:18:27;23.70;;;12.63;;
14748;SDS011;7466;53.574;9.976;2022-12-24T05:20:53;22.47;;;12.10;;
14748;SDS011;7466;53.574;9.976;2022-12-24T05:23:22;25.07;;;12.53;;
14748;SDS011;7466;53.574;9.976;2022-12-24T05:26:12;23.57;;;12.07;;
14748;SDS011;7466;53.574;9.976;2022-12-24T05:28:47;28.40;;;12.83;;
14748;SDS011;7466;53.574;9.976;2022-12-24T05:31:14;21.13;;;12.03;;
14748;SDS011;7466;53.574;9.976;2022-12-24T05:33:42;22.73;;;12.10;;
14748;SDS011;7466;53.574;9.976;2022-12-24T05:36:09;27.57;;;12.17;;
14748;SDS011;7466;53.574;9.976;2022-12-24T05:38:36;22.17;;;12.00;;
14748;SDS011;7466;53.574;9.976;2022-12-24T05:41:03;19.63;;;12.40;;
14748;SDS011;7466;53.574;9.976;2022-12-24T05:43:33;23.53;;;12.77;;
14748;SDS011;7466;53.574;9.976;2022-12-24T05:46:01;20.93;;;12.17;;
14748;SDS011;7466;53.574;9.976;2022-12-24T05:48:30;22.60;;;12.17;;
14748;SDS011;7466;53.574;9.976;2022-12-24T05:50:58;22.10;;;12.47;;
14748;SDS011;7466;53.574;9.976;2022-12-24T05:53:25;23.33;;;12.33;;
14748;SDS011;7466;53.574;9.976;2022-12-24T05:55:52;25.53;;;13.27;;
14748;SDS011;7466;53.574;9.976;2022-12-24T05:58:19;21.33;;;12.37;;
14748;SDS011;7466;53.574;9.976;2022-12-24T06:00:46;25.40;;;13.30;;
14748;SDS011;7466;53.574;9.976;2022-12-24T06:03:13;22.20;;;12.33;;
14748;SDS011;7466;53.574;9.976;2022-12-24T06:05:39;21.47;;;11.63;;
14748;SDS011;7466;53.574;9.976;2022-12-24T06:08:08;22.30;;;12.97;;
14748;SDS011;7466;53.574;9.976;2022-12-24T06:10:34;25.33;;;12.77;;
14748;SDS011;7466;53.574;9.976;2022-12-24T06:13:01;24.83;;;12.90;;
14748;SDS011;7466;53.574;9.976;2022-12-24T06:15:28;22.73;;;13.17;;
14748;SDS011;7466;53.574;9.976;2022-12-24T06:17:55;24.00;;;13.00;;
14748;SDS011;7466;53.574;9.976;2022-12-24T06:20:22;25.50;;;13.03;;
14748;SDS011;7466;53.574;9.976;2022-12-24T06:22:49;21.77;;;12.03;;
14748;SDS011;7466;53.574;9.976;2022-12-24T06:25:17;22.37;;;12.43;;
14748;SDS011;7466;53.574;9.976;2022-12-24T06:27:44;21.53;;;12.30;;
14748;SDS011;7466;53.574;9.976;2022-12-24T06:30:11;22.13;;;12.07;;
14748;SDS011;7466;53.574;9.976;2022-12-24T06:32:38;25.77;;;12.73;;
14748;SDS011;7466;53.574;9.976;2022-12-24T06:35:05;21.90;;;12.53;;
14748;SDS011;7466;53.574;9.976;2022-12-24T06:37:32;20.13;;;11.53;;
14748;SDS011;7466;53.574;9.976;2022-12-24T06:39:59;20.57;;;12.03;;
14748;SDS011;7466;53.574;9.976;2022-12-24T06:42:28;22.27;;;12.00;;
14748;SDS011;7466;53.574;9.976;2022-12-24T06:44:55;18.20;;;11.07;;
14748;SDS011;7466;53.574;9.976;2022-12-24T06:47:21;19.90;;;11.67;;
14748;SDS011;7466;53.574;9.976;2022-12-24T06:49:49;18.83;;;11.30;;
14748;SDS011;7466;53.574;9.976;2022-12-24T06:52:16;18.17;;;10.87;;
14748;SDS011;7466;53.574;9.976;2022-12-24T06:54:42;20.17;;;10.93;;
14748;SDS011;7466;53.574;9.976;2022-12-24T06:57:09;20.23;;;10.80;;
14748;SDS011;7466;53.574;9.976;2022-12-24T06:59:38;20.07;;;11.30;;
14748;SDS011;7466;53.574;9.976;2022-12-24T07:02:05;16.93;;;10.07;;
14748;SDS011;7466;53.574;9.976;2022-12-24T07:04:32;17.50;;;10.90;;
14748;SDS011;7466;53.574;9.976;2022-12-24T07:06:59;18.30;;;11.27;;
14748;SDS011;7466;53.574;9.976;2022-12-24T07:09:25;17.13;;;10.20;;
14748;SDS011;7466;53.574;9.976;2022-12-24T07:11:52;16.63;;;10.80;;
14748;SDS011;7466;53.574;9.976;2022-12-24T07:14:19;17.00;;;9.63;;
14748;SDS011;7466;53.574;9.976;2022-12-24T07:16:47;18.40;;;10.43;;
14748;SDS011;7466;53.574;9.976;2022-12-24T07:19:14;18.20;;;10.63;;
14748;SDS011;7466;53.574;9.976;2022-12-24T07:21:41;15.67;;;10.17;;
14748;SDS011;7466;53.574;9.976;2022-12-24T07:24:08;18.17;;;11.00;;
14748;SDS011;7466;53.574;9.976;2022-12-24T07:26:35;17.50;;;9.83;;
14748;SDS011;7466;53.574;9.976;2022-12-24T07:29:02;16.30;;;10.10;;
14748;SDS011;7466;53.574;9.976;2022-12-24T07:31:29;16.13;;;10.20;;
14748;SDS011;7466;53.574;9.976;2022-12-24T07:33:57;15.73;;;9.83;;
14748;SDS011;7466;53.574;9.976;2022-12-24T07:36:24;16.23;;;10.07;;
14748;SDS011;7466;53.574;9.976;2022-12-24T07:38:52;15.37;;;9.87;;
14748;SDS011;7466;53.574;9.976;2022-12-24T07:41:20;13.30;;;9.70;;
14748;SDS011;7466;53.574;9.976;2022-12-24T07:43:47;15.37;;;9.53;;
14748;SDS011;7466;53.574;9.976;2022-12-24T07:46:14;14.13;;;9.23;;
14748;SDS011;7466;53.574;9.976;2022-12-24T07:48:46;14.93;;;9.63;;
14748;SDS011;7466;53.574;9.976;2022-12-24T07:51:15;19.00;;;10.47;;
14748;SDS011;7466;53.574;9.976;2022-12-24T07:53:42;13.73;;;9.80;;
14748;SDS011;7466;53.574;9.976;2022-12-24T07:56:11;14.30;;;9.53;;
14748;SDS011;7466;53.574;9.976;2022-12-24T07:58:46;14.10;;;9.53;;
14748;SDS011;7466;53.574;9.976;2022-12-24T08:01:14;17.80;;;9.30;;
14748;SDS011;7466;53.574;9.976;2022-12-24T08:03:47;14.83;;;8.93;;
14748;SDS011;7466;53.574;9.976;2022-12-24T08:06:16;12.47;;;9.73;;
14748;SDS011;7466;53.574;9.976;2022-12-24T08:08:43;13.13;;;9.37;;
14748;SDS011;7466;53.574;9.976;2022-12-24T08:11:10;13.13;;;8.90;;
14748;SDS011;7466;53.574;9.976;2022-12-24T08:13:37;12.90;;;8.67;;
14748;SDS011;7466;53.574;9.976;2022-12-24T08:16:05;14.33;;;8.97;;
14748;SDS011;7466;53.574;9.976;2022-12-24T08:18:32;11.87;;;8.30;;
14748;SDS011;7466;53.574;9.976;2022-12-24T08:20:59;10.30;;;7.57;;
14748;SDS011;7466;53.574;9.976;2022-12-24T08:23:31;14.17;;;8.90;;
14748;SDS011;7466;53.574;9.976;2022-12-24T08:25:57;10.40;;;7.97;;
14748;SDS011;7466;53.574;9.976;2022-12-24T08:28:25;11.37;;;7.80;;
14748;SDS011;7466;53.574;9.976;2022-12-24T08:30:52;10.57;;;7.53;;
14748;SDS011;7466;53.574;9.976;2022-12-24T08:33:19;12.90;;;8.13;;
14748;SDS011;7466;53.574;9.976;2022-12-24T08:35:47;11.60;;;8.67;;
14748;SDS011;7466;53.574;9.976;2022-12-24T08:38:14;9.90;;;8.50;;
14748;SDS011;7466;53.574;9.976;2022-12-24T08:40:43;10.23;;;8.23;;
14748;SDS011;7466;53.574;9.976;2022-12-24T08:43:14;13.60;;;8.60;;
14748;SDS011;7466;53.574;9.976;2022-12-24T08:45:42;8.67;;;7.27;;
14748;SDS011;7466;53.574;9.976;2022-12-24T08:48:17;9.70;;;8.70;;
14748;SDS011;7466;53.574;9.976;2022-12-24T08:50:44;11.23;;;8.47;;
14748;SDS011;7466;53.574;9.976;2022-12-24T08:53:11;11.40;;;8.67;;
14748;SDS011;7466;53.574;9.976;2022-12-24T08:55:38;13.10;;;8.17;;
14748;SDS011;7466;53.574;9.976;2022-12-24T08:58:08;9.50;;;8.17;;
14748;SDS011;7466;53.574;9.976;2022-12-24T09:00:35;10.17;;;8.50;;
14748;SDS011;7466;53.574;9.976;2022-12-24T09:03:02;9.00;;;7.77;;
14748;SDS011;7466;53.574;9.976;2022-12-24T09:05:29;9.50;;;7.93;;
14748;SDS011;7466;53.574;9.976;2022-12-24T09:07:56;9.40;;;8.40;;
14748;SDS011;7466;53.574;9.976;2022-12-24T09:10:23;10.07;;;8.63;;
14748;SDS011;7466;53.574;9.976;2022-12-24T09:12:50;10.33;;;8.37;;
14748;SDS011;7466;53.574;9.976;2022-12-24T09:15:18;9.47;;;8.57;;
14748;SDS011;7466;53.574;9.976;2022-12-24T09:17:45;10.10;;;9.03;;
14748;SDS011;7466;53.574;9.976;2022-12-24T09:20:12;12.80;;;9.03;;
14748;SDS011;7466;53.574;9.976;2022-12-24T09:22:39;11.13;;;10.03;;
14748;SDS011;7466;53.574;9.976;2022-12-24T09:25:06;12.00;;;9.63;;
14748;SDS011;7466;53.574;9.976;2022-12-24T09:27:34;10.57;;;9.47;;
14748;SDS011;7466;53.574;9.976;2022-12-24T09:30:03;12.63;;;10.10;;
14748;SDS011;7466;53.574;9.976;2022-12-24T09:32:33;11.17;;;9.90;;
14748;SDS011;7466;53.574;9.976;2022-12-24T09:35:00;12.10;;;10.37;;
14748;SDS011;7466;53.574;9.976;2022-12-24T09:37:27;14.47;;;11.07;;
14748;SDS011;7466;53.574;9.976;2022-12-24T09:39:53;11.33;;;9.90;;
14748;SDS011;7466;53.574;9.976;2022-12-24T09:42:23;13.03;;;10.03;;
14748;SDS011;7466;53.574;9.976;2022-12-24T09:45:00;14.40;;;10.30;;
14748;SDS011;7466;53.574;9.976;2022-12-24T09:47:33;14.57;;;10.73;;
14748;SDS011;7466;53.574;9.976;2022-12-24T09:50:08;13.67;;;10.27;;
14748;SDS011;7466;53.574;9.976;2022-12-24T09:52:51;10.37;;;9.37;;
14748;SDS011;7466;53.574;9.976;2022-12-24T09:55:22;11.13;;;10.00;;
14748;SDS011;7466;53.574;9.976;2022-12-24T09:57:53;11.10;;;10.00;;
14748;SDS011;7466;53.574;9.976;2022-12-24T10:00:34;13.10;;;10.00;;
14748;SDS011;7466;53.574;9.976;2022-12-24T10:03:09;11.40;;;10.00;;
14748;SDS011;7466;53.574;9.976;2022-12-24T10:05:41;11.80;;;10.40;;
14748;SDS011;7466;53.574;9.976;2022-12-24T10:08:16;12.70;;;10.87;;
14748;SDS011;7466;53.574;9.976;2022-12-24T10:10:50;13.23;;;10.27;;
14748;SDS011;7466;53.574;9.976;2022-12-24T10:13:22;14.60;;;10.73;;
14748;SDS011;7466;53.574;9.976;2022-12-24T10:15:59;14.00;;;10.83;;
14748;SDS011;7466;53.574;9.976;2022-12-24T10:18:35;12.87;;;10.53;;
14748;SDS011;7466;53.574;9.976;2022-12-24T10:21:09;16.53;;;11.60;;
14748;SDS011;7466;53.574;9.976;2022-12-24T10:23:40;12.13;;;10.50;;
14748;SDS011;7466;53.574;9.976;2022-12-24T10:26:14;13.13;;;10.17;;
14748;SDS011;7466;53.574;9.976;2022-12-24T10:28:45;11.77;;;9.47;;
14748;SDS011;7466;53.574;9.976;2022-12-24T10:33:56;16.20;;;12.37;;
14748;SDS011;7466;53.574;9.976;2022-12-24T10:36:49;16.97;;;13.23;;
14748;SDS011;7466;53.574;9.976;2022-12-24T10:39:18;19.27;;;14.80;;
14748;SDS011;7466;53.574;9.976;2022-12-24T10:41:47;20.00;;;15.03;;
14748;SDS011;7466;53.574;9.976;2022-12-24T10:44:17;17.67;;;14.30;;
14748;SDS011;7466;53.574;9.976;2022-12-24T10:46:47;22.43;;;15.03;;
14748;SDS011;7466;53.574;9.976;2022-12-24T10:49:16;23.53;;;15.57;;
14748;SDS011;7466;53.574;9.976;2022-12-24T10:51:52;21.07;;;13.93;;
14748;SDS011;7466;53.574;9.976;2022-12-24T10:54:23;20.10;;;14.00;;
14748;SDS011;7466;53.574;9.976;2022-12-24T10:56:57;19.57;;;12.63;;
14748;SDS011;7466;53.574;9.976;2022-12-24T10:59:26;13.53;;;11.30;;
14748;SDS011;7466;53.574;9.976;2022-12-24T11:01:55;14.37;;;11.40;;
14748;SDS011;7466;53.574;9.976;2022-12-24T11:04:26;15.53;;;12.00;;
14748;SDS011;7466;53.574;9.976;2022-12-24T11:06:55;13.00;;;10.60;;
14748;SDS011;7466;53.574;9.976;2022-12-24T11:09:32;13.03;;;9.93;;
14748;SDS011;7466;53.574;9.976;2022-12-24T11:12:00;12.77;;;10.53;;
14748;SDS011;7466;53.574;9.976;2022-12-24T11:14:32;12.27;;;9.90;;
14748;SDS011;7466;53.574;9.976;2022-12-24T11:17:02;12.77;;;10.00;;
14748;SDS011;7466;53.574;9.976;2022-12-24T11:22:16;12.90;;;10.10;;
14748;SDS011;7466;53.574;9.976;2022-12-24T11:24:46;11.80;;;10.57;;
14748;SDS011;7466;53.574;9.976;2022-12-24T11:27:28;11.63;;;10.43;;
14748;SDS011;7466;53.574;9.976;2022-12-24T11:35:42;10.90;;;9.83;;
14748;SDS011;7466;53.574;9.976;2022-12-24T11:38:16;12.93;;;10.43;;
14748;SDS011;7466;53.574;9.976;2022-12-24T11:40:46;11.63;;;10.20;;
14748;SDS011;7466;53.574;9.976;2022-12-24T11:43:16;12.27;;;10.53;;
14748;SDS011;7466;53.574;9.976;2022-12-24T11:45:49;13.90;;;10.80;;
14748;SDS011;7466;53.574;9.976;2022-12-24T11:48:23;15.47;;;11.17;;
14748;SDS011;7466;53.574;9.976;2022-12-24T11:50:56;14.57;;;10.80;;
14748;SDS011;7466;53.574;9.976;2022-12-24T11:53:26;13.57;;;11.13;;
14748;SDS011;7466;53.574;9.976;2022-12-24T11:55:58;14.47;;;11.20;;
14748;SDS011;7466;53.574;9.976;2022-12-24T11:58:36;14.47;;;11.87;;
14748;SDS011;7466;53.574;9.976;2022-12-24T12:01:10;16.97;;;11.70;;
14748;SDS011;7466;53.574;9.976;2022-12-24T12:03:52;13.80;;;10.90;;
14748;SDS011;7466;53.574;9.976;2022-12-24T12:06:26;13.27;;;11.20;;
14748;SDS011;7466;53.574;9.976;2022-12-24T12:08:58;15.20;;;11.10;;
14748;SDS011;7466;53.574;9.976;2022-12-24T12:11:27;14.50;;;11.13;;
14748;SDS011;7466;53.574;9.976;2022-12-24T12:13:55;18.23;;;10.97;;
14748;SDS011;7466;53.574;9.976;2022-12-24T12:16:26;15.03;;;11.60;;
14748;SDS011;7466;53.574;9.976;2022-12-24T12:19:17;23.83;;;12.90;;
14748;SDS011;7466;53.574;9.976;2022-12-24T12:21:48;16.47;;;12.57;;
14748;SDS011;7466;53.574;9.976;2022-12-24T12:24:17;23.40;;;13.30;;
14748;SDS011;7466;53.574;9.976;2022-12-24T12:26:52;19.80;;;13.00;;
14748;SDS011;7466;53.574;9.976;2022-12-24T12:29:38;25.37;;;13.20;;
14748;SDS011;7466;53.574;9.976;2022-12-24T12:32:10;18.77;;;14.07;;
14748;SDS011;7466;53.574;9.976;2022-12-24T12:34:51;25.73;;;13.47;;
14748;SDS011;7466;53.574;9.976;2022-12-24T12:37:27;22.40;;;12.83;;
14748;SDS011;7466;53.574;9.976;2022-12-24T12:39:59;24.53;;;12.40;;
14748;SDS011;7466;53.574;9.976;2022-12-24T12:42:28;23.93;;;13.70;;
14748;SDS011;7466;53.574;9.976;2022-12-24T12:45:21;23.47;;;12.67;;
14748;SDS011;7466;53.574;9.976;2022-12-24T12:48:08;24.27;;;12.13;;
14748;SDS011;7466;53.574;9.976;2022-12-24T12:50:57;17.03;;;11.97;;
14748;SDS011;7466;53.574;9.976;2022-12-24T12:53:42;22.20;;;13.63;;
14748;SDS011;7466;53.574;9.976;2022-12-24T12:56:20;19.87;;;12.97;;
14748;SDS011;7466;53.574;9.976;2022-12-24T12:58:54;22.60;;;12.73;;
14748;SDS011;7466;53.574;9.976;2022-12-24T13:01:39;21.67;;;12.67;;
14748;SDS011;7466;53.574;9.976;2022-12-24T13:07:26;28.50;;;13.23;;
14748;SDS011;7466;53.574;9.976;2022-12-24T13:16:18;26.53;;;12.83;;
14748;SDS011;7466;53.574;9.976;2022-12-24T13:19:05;25.57;;;12.90;;
14748;SDS011;7466;53.574;9.976;2022-12-24T13:21:41;28.07;;;12.87;;
14748;SDS011;7466;53.574;9.976;2022-12-24T13:24:14;25.03;;;12.13;;
14748;SDS011;7466;53.574;9.976;2022-12-24T13:26:44;31.23;;;12.43;;
14748;SDS011;7466;53.574;9.976;2022-12-24T13:29:29;21.57;;;11.70;;
14748;SDS011;7466;53.574;9.976;2022-12-24T13:35:35;25.70;;;11.73;;
14748;SDS011;7466;53.574;9.976;2022-12-24T13:38:28;25.27;;;12.50;;
14748;SDS011;7466;53.574;9.976;2022-12-24T13:44:22;30.70;;;12.50;;
14748;SDS011;7466;53.574;9.976;2022-12-24T13:47:17;33.97;;;12.73;;
14748;SDS011;7466;53.574;9.976;2022-12-24T13:49:51;45.40;;;13.07;;
14748;SDS011;7466;53.574;9.976;2022-12-24T13:52:27;33.37;;;12.03;;
14748;SDS011;7466;53.574;9.976;2022-12-24T13:55:13;33.77;;;11.63;;
14748;SDS011;7466;53.574;9.976;2022-12-24T13:57:43;40.73;;;11.70;;
14748;SDS011;7466;53.574;9.976;2022-12-24T14:00:25;31.63;;;11.50;;
14748;SDS011;7466;53.574;9.976;2022-12-24T14:03:04;28.90;;;11.27;;
14748;SDS011;7466;53.574;9.976;2022-12-24T14:05:44;29.53;;;10.10;;
14748;SDS011;7466;53.574;9.976;2022-12-24T14:08:24;34.10;;;10.67;;
14748;SDS011;7466;53.574;9.976;2022-12-24T14:11:03;27.17;;;11.07;;
14748;SDS011;7466;53.574;9.976;2022-12-24T14:16:40;33.63;;;10.20;;
14748;SDS011;7466;53.574;9.976;2022-12-24T14:19:11;37.67;;;10.83;;
14748;SDS011;7466;53.574;9.976;2022-12-24T14:21:41;32.73;;;10.63;;
14748;SDS011;7466;53.574;9.976;2022-12-24T14:24:14;35.67;;;10.40;;
14748;SDS011;7466;53.574;9.976;2022-12-24T14:26:43;32.90;;;9.87;;
14748;SDS011;7466;53.574;9.976;2022-12-24T14:29:14;33.03;;;9.70;;
14748;SDS011;7466;53.574;9.976;2022-12-24T14:31:49;28.93;;;9.20;;
14748;SDS011;7466;53.574;9.976;2022-12-24T14:34:17;40.67;;;9.90;;
14748;SDS011;7466;53.574;9.976;2022-12-24T14:36:44;32.77;;;9.23;;
14748;SDS011;7466;53.574;9.976;2022-12-24T14:39:19;39.33;;;9.37;;
14748;SDS011;7466;53.574;9.976;2022-12-24T14:41:56;44.90;;;9.80;;
14748;SDS011;7466;53.574;9.976;2022-12-24T14:44:30;44.37;;;9.50;;
14748;SDS011;7466;53.574;9.976;2022-12-24T14:47:06;36.40;;;9.60;;
14748;SDS011;7466;53.574;9.976;2022-12-24T14:49:48;39.47;;;9.40;;
14748;SDS011;7466;53.574;9.976;2022-12-24T14:52:28;31.47;;;8.33;;
14748;SDS011;7466;53.574;9.976;2022-12-24T14:55:01;33.27;;;8.77;;
14748;SDS011;7466;53.574;9.976;2022-12-24T15:00:49;35.30;;;8.80;;
14748;SDS011;7466;53.574;9.976;2022-12-24T15:03:17;34.67;;;9.00;;
14748;SDS011;7466;53.574;9.976;2022-12-24T15:05:48;38.73;;;9.17;;
14748;SDS011;7466;53.574;9.976;2022-12-24T15:08:18;37.10;;;10.10;;
14748;SDS011;7466;53.574;9.976;2022-12-24T15:10:50;36.57;;;9.67;;
14748;SDS011;7466;53.574;9.976;2022-12-24T15:13:21;38.33;;;10.03;;
14748;SDS011;7466;53.574;9.976;2022-12-24T15:15:54;38.57;;;10.40;;
14748;SDS011;7466;53.574;9.976;2022-12-24T15:18:23;51.03;;;12.90;;
14748;SDS011;7466;53.574;9.976;2022-12-24T15:20:53;40.87;;;11.10;;
14748;SDS011;7466;53.574;9.976;2022-12-24T15:23:25;43.50;;;11.70;;
14748;SDS011;7466;53.574;9.976;2022-12-24T15:26:06;45.20;;;12.17;;
14748;SDS011;7466;53.574;9.976;2022-12-24T15:28:39;48.47;;;12.07;;
14748;SDS011;7466;53.574;9.976;2022-12-24T15:31:07;42.47;;;12.80;;
14748;SDS011;7466;53.574;9.976;2022-12-24T15:33:36;45.37;;;13.00;;
14748;SDS011;7466;53.574;9.976;2022-12-24T15:36:04;46.07;;;12.93;;
14748;SDS011;7466;53.574;9.976;2022-12-24T15:38:35;47.40;;;14.33;;